Time;durP1;ratioP1;P1;durP2;ratioP2;P2;SDS_P1;SDS_P2;PMS_P1;PMS_P2;Temp;Humidity;BMP_temperature;BMP_pressure;BME280_temperature;BME280_humidity;BME280_pressure;Samples;Min_cycle;Max_cycle;Signal;HPM_P1;HPM_P2
2023/10/31 05:56:50;;;;;;;;;;;;;;;;;;;;;
2023/10/31 06:07:59;;;;;;;0.20;0.17;;;;;;;;;;6244284;23;20066;-91
2023/10/31 06:10:37;;;;;;;1.00;0.20;;;;;;;;;;6239890;23;20044;-92
2023/10/31 06:13:22;;;;;;;0.35;0.22;;;;;;;;;;6240497;23;20381;-93
2023/10/31 06:15:50;;;;;;;0.63;0.40;;;;;;;;;;6239026;23;20581;-91
2023/10/31 06:18:16;;;;;;;0.88;0.65;;;;;;;;;;6240661;23;20030;-90
2023/10/31 06:20:42;;;;;;;2.60;0.50;;;;;;;;;;6239752;23;20009;-91
2023/10/31 06:23:08;;;;;;;4.07;1.55;;;;;;;;;;6240339;23;20008;-90
2023/10/31 06:25:34;;;;;;;4.32;0.93;;;;;;;;;;6240694;23;20550;-88
2023/10/31 06:28:00;;;;;;;1.30;0.73;;;;;;;;;;6241770;23;20015;-87
2023/10/31 06:30:29;;;;;;;1.58;0.70;;;;;;;;;;6243634;23;20012;-86
2023/10/31 06:32:55;;;;;;;1.60;0.38;;;;;;;;;;6248410;23;20023;-86
2023/10/31 06:35:21;;;;;;;0.32;0.20;;;;;;;;;;6245133;23;20036;-85
2023/10/31 06:38:01;;;;;;;2.60;0.52;;;;;;;;;;6246207;23;20054;-87
2023/10/31 06:40:26;;;;;;;;;;;;;;;;;;6246041;23;20103;-88
2023/10/31 06:42:53;;;;;;;0.73;0.50;;;;;;;;;;6244143;23;19954;-90
2023/10/31 06:45:19;;;;;;;3.90;0.17;;;;;;;;;;6240745;23;20102;-88
2023/10/31 06:47:45;;;;;;;0.40;0.20;;;;;;;;;;6240464;23;20119;-85
2023/10/31 06:50:11;;;;;;;1.73;1.02;;;;;;;;;;6240645;23;20008;-88
2023/10/31 06:52:37;;;;;;;2.85;0.55;;;;;;;;;;6240218;23;20428;-87
2023/10/31 06:55:03;;;;;;;1.13;0.50;;;;;;;;;;6239063;23;20420;-87
2023/10/31 06:57:29;;;;;;;2.20;0.93;;;;;;;;;;6240916;23;20039;-86
2023/10/31 06:59:55;;;;;;;0.30;0.10;;;;;;;;;;6241249;23;20482;-86
2023/10/31 07:02:21;;;;;;;0.47;0.30;;;;;;;;;;6241021;23;20373;-87
2023/10/31 07:04:47;;;;;;;1.88;0.40;;;;;;;;;;6241039;23;20023;-87
2023/10/31 07:07:13;;;;;;;2.45;1.05;;;;;;;;;;6240561;23;20027;-87
2023/10/31 07:09:39;;;;;;;1.05;0.47;;;;;;;;;;6240666;23;20034;-87
2023/10/31 07:12:06;;;;;;;1.25;0.57;;;;;;;;;;6241008;23;20016;-89
2023/10/31 07:14:32;;;;;;;0.38;0.20;;;;;;;;;;6241049;23;20039;-89
2023/10/31 07:16:58;;;;;;;2.38;1.10;;;;;;;;;;6244139;23;20058;-89
2023/10/31 07:19:24;;;;;;;1.25;0.32;;;;;;;;;;6242000;23;20095;-87
2023/10/31 07:21:50;;;;;;;0.98;0.55;;;;;;;;;;6242443;23;20042;-90
2023/10/31 07:24:16;;;;;;;0.73;0.40;;;;;;;;;;6241003;23;20074;-88
2023/10/31 07:26:42;;;;;;;;;;;;;;;;;;6241484;23;20056;-86
2023/10/31 07:29:08;;;;;;;;;;;;;;;;;;6241482;23;19903;-85
2023/10/31 07:31:38;;;;;;;1.98;0.57;;;;;;;;;;6240410;23;19908;-87
2023/10/31 07:34:04;;;;;;;0.40;0.20;;;;;;;;;;6240260;23;20011;-88
2023/10/31 07:36:32;;;;;;;0.17;0.10;;;;;;;;;;6241706;23;20016;-85
2023/10/31 07:38:58;;;;;;;0.68;0.20;;;;;;;;;;6240021;23;20401;-86
2023/10/31 07:41:24;;;;;;;0.98;0.40;;;;;;;;;;6240725;23;20340;-86
2023/10/31 07:43:50;;;;;;;0.10;0.10;;;;;;;;;;6240864;23;20008;-87
2023/10/31 07:46:16;;;;;;;0.10;0.10;;;;;;;;;;6240831;23;20443;-88
2023/10/31 07:48:42;;;;;;;0.95;0.52;;;;;;;;;;6240495;23;20016;-88
2023/10/31 07:51:08;;;;;;;2.38;0.60;;;;;;;;;;6240514;23;20297;-87
2023/10/31 07:53:34;;;;;;;1.02;0.52;;;;;;;;;;6240772;23;20042;-87
2023/10/31 07:56:00;;;;;;;0.40;0.28;;;;;;;;;;6242626;23;20423;-85
2023/10/31 07:58:26;;;;;;;2.28;0.60;;;;;;;;;;6242244;23;20100;-87
2023/10/31 08:00:52;;;;;;;3.33;1.60;;;;;;;;;;6240896;23;20039;-88
2023/10/31 08:03:18;;;;;;;4.28;1.30;;;;;;;;;;6241855;23;20380;-87
2023/10/31 08:05:44;;;;;;;1.38;0.50;;;;;;;;;;6241856;23;20058;-85
2023/10/31 08:08:10;;;;;;;0.93;0.47;;;;;;;;;;6242721;23;20455;-87
2023/10/31 08:10:36;;;;;;;0.85;0.38;;;;;;;;;;6242827;23;20015;-86
2023/10/31 08:13:02;;;;;;;0.77;0.47;;;;;;;;;;6241910;23;20054;-88
2023/10/31 08:15:28;;;;;;;1.60;0.40;;;;;;;;;;6240736;23;20126;-87
2023/10/31 08:17:54;;;;;;;1.20;0.60;;;;;;;;;;6240621;23;20012;-87
2023/10/31 08:20:20;;;;;;;4.85;0.85;;;;;;;;;;6241858;23;20042;-87
2023/10/31 08:22:46;;;;;;;1.55;0.82;;;;;;;;;;6244414;23;20016;-86
2023/10/31 08:25:12;;;;;;;0.60;0.30;;;;;;;;;;6240336;23;20099;-87
2023/10/31 08:27:38;;;;;;;1.15;0.50;;;;;;;;;;6241699;23;20012;-87
2023/10/31 08:30:05;;;;;;;2.55;0.43;;;;;;;;;;6240983;23;20011;-87
2023/10/31 08:32:31;;;;;;;0.70;0.38;;;;;;;;;;6241612;23;20004;-87
2023/10/31 08:34:57;;;;;;;1.63;0.45;;;;;;;;;;6241469;23;20073;-86
2023/10/31 08:37:24;;;;;;;1.00;0.50;;;;;;;;;;6244830;23;20012;-85
2023/10/31 08:39:50;;;;;;;2.72;0.65;;;;;;;;;;6242638;23;20012;-85
2023/10/31 08:42:16;;;;;;;2.25;0.70;;;;;;;;;;6241324;23;20103;-88
2023/10/31 08:44:42;;;;;;;0.15;0.10;;;;;;;;;;6240436;23;20038;-88
2023/10/31 08:47:08;;;;;;;0.32;0.22;;;;;;;;;;6240449;23;20012;-86
2023/10/31 08:49:33;;;;;;;1.00;0.50;;;;;;;;;;6240790;23;20019;-87
2023/10/31 08:52:02;;;;;;;4.35;0.70;;;;;;;;;;6242882;23;20035;-86
2023/10/31 08:54:28;;;;;;;0.40;0.20;;;;;;;;;;6243883;23;20079;-86
2023/10/31 08:56:54;;;;;;;0.85;0.50;;;;;;;;;;6246316;23;20007;-87
2023/10/31 08:59:20;;;;;;;1.70;0.60;;;;;;;;;;6243737;23;20719;-86
2023/10/31 09:01:46;;;;;;;0.70;0.35;;;;;;;;;;6242151;23;20087;-87
2023/10/31 09:04:12;;;;;;;1.05;0.28;;;;;;;;;;6243678;23;20020;-87
2023/10/31 09:06:38;;;;;;;2.90;0.68;;;;;;;;;;6243887;23;20008;-86
2023/10/31 09:09:04;;;;;;;2.22;1.08;;;;;;;;;;6243861;23;20012;-86
2023/10/31 09:11:30;;;;;;;2.15;0.32;;;;;;;;;;6239794;23;20087;-87
2023/10/31 09:13:56;;;;;;;2.80;0.90;;;;;;;;;;6240184;23;20022;-87
2023/10/31 09:16:22;;;;;;;3.03;0.80;;;;;;;;;;6242818;23;20004;-86
2023/10/31 09:18:48;;;;;;;0.75;0.40;;;;;;;;;;6240866;23;20515;-88
2023/10/31 09:21:15;;;;;;;1.75;0.40;;;;;;;;;;6240337;23;20332;-88
2023/10/31 09:23:41;;;;;;;1.13;0.75;;;;;;;;;;6238765;23;20031;-88
2023/10/31 09:26:07;;;;;;;2.38;1.02;;;;;;;;;;6239849;23;20008;-87
2023/10/31 09:28:33;;;;;;;0.75;0.60;;;;;;;;;;6241632;23;20004;-88
2023/10/31 09:31:00;;;;;;;2.75;0.35;;;;;;;;;;6240121;23;20083;-88
2023/10/31 09:33:26;;;;;;;3.08;0.40;;;;;;;;;;6242533;23;20004;-86
2023/10/31 09:35:52;;;;;;;1.02;0.65;;;;;;;;;;6244375;23;20417;-89
2023/10/31 09:38:18;;;;;;;3.15;0.73;;;;;;;;;;6243502;23;20005;-89
2023/10/31 09:40:44;;;;;;;0.20;0.20;;;;;;;;;;6240407;23;20004;-89
2023/10/31 09:43:11;;;;;;;5.15;0.93;;;;;;;;;;6240281;23;20404;-88
2023/10/31 09:45:37;;;;;;;4.63;1.40;;;;;;;;;;6241905;23;20051;-87
2023/10/31 09:48:03;;;;;;;1.08;0.65;;;;;;;;;;6240389;23;20011;-89
2023/10/31 09:50:30;;;;;;;0.68;0.28;;;;;;;;;;6239910;23;20048;-88
2023/10/31 09:52:56;;;;;;;1.23;0.10;;;;;;;;;;6241023;23;20031;-86
2023/10/31 09:55:22;;;;;;;0.40;0.32;;;;;;;;;;6240514;23;20063;-86
2023/10/31 09:57:48;;;;;;;0.98;0.40;;;;;;;;;;6240316;23;20077;-88
2023/10/31 10:00:15;;;;;;;0.13;0.13;;;;;;;;;;6241230;23;20087;-90
2023/10/31 10:02:41;;;;;;;1.00;0.47;;;;;;;;;;6242619;23;20038;-88
2023/10/31 10:05:09;;;;;;;0.10;0.03;;;;;;;;;;6242201;23;20051;-87
2023/10/31 10:07:35;;;;;;;0.68;0.40;;;;;;;;;;6242224;23;20024;-87
2023/10/31 10:10:01;;;;;;;2.20;0.20;;;;;;;;;;6242547;23;20011;-86
2023/10/31 10:12:27;;;;;;;0.82;0.20;;;;;;;;;;6244555;23;20392;-86
2023/10/31 10:14:53;;;;;;;2.53;0.90;;;;;;;;;;6244287;23;20031;-85
2023/10/31 10:17:23;;;;;;;3.40;1.08;;;;;;;;;;6243295;23;20023;-85
2023/10/31 10:20:09;;;;;;;4.05;1.20;;;;;;;;;;6242299;23;20012;-87
2023/10/31 10:22:40;;;;;;;2.15;0.93;;;;;;;;;;6244726;23;20012;-85
2023/10/31 10:25:11;;;;;;;1.30;0.65;;;;;;;;;;6242552;23;20016;-85
2023/10/31 10:27:37;;;;;;;0.80;0.40;;;;;;;;;;6242336;23;20016;-88
2023/10/31 10:30:04;;;;;;;0.88;0.50;;;;;;;;;;6241895;23;20004;-87
2023/10/31 10:32:30;;;;;;;0.88;0.30;;;;;;;;;;6241860;23;20699;-86
2023/10/31 10:34:58;;;;;;;0.75;0.40;;;;;;;;;;6243340;23;20008;-89
2023/10/31 10:37:27;;;;;;;1.13;0.43;;;;;;;;;;6245262;23;20016;-89
2023/10/31 10:39:56;;;;;;;0.30;0.30;;;;;;;;;;6243720;23;20008;-90
2023/10/31 10:42:36;;;;;;;0.25;0.20;;;;;;;;;;6241718;23;20078;-88
2023/10/31 10:45:03;;;;;;;2.92;0.50;;;;;;;;;;6241249;23;20027;-87
2023/10/31 10:47:31;;;;;;;0.00;0.00;;;;;;;;;;6241022;23;20447;-87
2023/10/31 10:50:00;;;;;;;0.73;0.38;;;;;;;;;;6241398;23;20666;-87
2023/10/31 10:52:31;;;;;;;0.77;0.40;;;;;;;;;;6241935;23;20008;-88
2023/10/31 10:55:32;;;;;;;0.52;0.35;;;;;;;;;;6242524;23;20020;-89
2023/10/31 10:58:05;;;;;;;0.45;0.35;;;;;;;;;;6092901;23;20092;-88
2023/10/31 11:00:31;;;;;;;0.95;0.52;;;;;;;;;;6150171;23;20013;-88
2023/10/31 11:02:58;;;;;;;1.02;0.38;;;;;;;;;;6149919;23;20351;-88
2023/10/31 11:05:24;;;;;;;0.30;0.20;;;;;;;;;;6150035;23;20778;-87
2023/10/31 11:07:51;;;;;;;1.42;1.10;;;;;;;;;;6149299;23;20030;-88
2023/10/31 11:10:18;;;;;;;1.08;0.57;;;;;;;;;;6149361;23;20010;-87
2023/10/31 11:12:44;;;;;;;2.38;0.30;;;;;;;;;;6149872;23;20013;-88
2023/10/31 11:15:12;;;;;;;1.85;0.70;;;;;;;;;;6149867;23;20040;-88
2023/10/31 11:17:39;;;;;;;5.47;0.80;;;;;;;;;;6150283;23;20423;-88
2023/10/31 11:20:08;;;;;;;5.18;0.55;;;;;;;;;;6149238;23;20021;-88
2023/10/31 11:22:40;;;;;;;0.70;0.57;;;;;;;;;;6149312;23;20018;-89
2023/10/31 11:25:10;;;;;;;7.15;1.38;;;;;;;;;;6149709;23;20017;-90
2023/10/31 11:27:37;;;;;;;2.85;0.73;;;;;;;;;;6150261;23;20020;-90
2023/10/31 11:30:05;;;;;;;0.77;0.45;;;;;;;;;;6259996;22;20435;-90
2023/10/31 11:32:35;;;;;;;1.48;0.65;;;;;;;;;;6241826;23;20018;-90
2023/10/31 11:35:02;;;;;;;3.03;1.02;;;;;;;;;;6242288;23;20416;-89
2023/10/31 11:37:37;;;;;;;1.58;0.75;;;;;;;;;;6240747;23;20012;-90
2023/10/31 11:40:24;;;;;;;3.97;1.27;;;;;;;;;;6240374;23;20047;-90
2023/10/31 11:42:54;;;;;;;1.70;0.80;;;;;;;;;;6241093;23;20015;-90
2023/10/31 11:45:40;;;;;;;6.10;1.70;;;;;;;;;;6241201;23;20015;-88
2023/10/31 11:48:10;;;;;;;7.60;2.15;;;;;;;;;;6240629;23;20041;-90
2023/10/31 11:50:37;;;;;;;1.15;0.73;;;;;;;;;;6241057;23;20004;-88
2023/10/31 11:53:13;;;;;;;3.50;1.08;;;;;;;;;;6240375;23;20012;-89
2023/10/31 11:55:49;;;;;;;3.05;0.95;;;;;;;;;;6241585;23;20012;-88
2023/10/31 11:58:17;;;;;;;2.15;0.68;;;;;;;;;;6245773;23;20008;-85
2023/10/31 12:00:44;;;;;;;1.30;0.38;;;;;;;;;;6246321;23;20070;-85
2023/10/31 12:03:10;;;;;;;1.73;0.73;;;;;;;;;;6245251;23;20066;-85
2023/10/31 12:05:36;;;;;;;2.70;1.30;;;;;;;;;;6244575;23;20045;-86
2023/10/31 12:08:03;;;;;;;3.33;1.88;;;;;;;;;;6243933;23;20024;-89
2023/10/31 12:10:30;;;;;;;5.30;2.03;;;;;;;;;;6244886;23;20008;-85
2023/10/31 12:12:58;;;;;;;3.03;1.25;;;;;;;;;;6245929;23;20080;-86
2023/10/31 12:15:24;;;;;;;2.08;0.65;;;;;;;;;;6242332;23;20027;-85
2023/10/31 12:17:50;;;;;;;1.65;0.52;;;;;;;;;;6247995;23;20406;-85
2023/10/31 12:20:16;;;;;;;0.38;0.13;;;;;;;;;;6243502;23;20062;-85
2023/10/31 12:22:43;;;;;;;1.38;0.35;;;;;;;;;;6245248;23;20378;-86
2023/10/31 12:25:09;;;;;;;2.30;0.95;;;;;;;;;;6246549;23;20471;-85
2023/10/31 12:27:49;;;;;;;2.42;1.13;;;;;;;;;;6244102;23;20336;-87
2023/10/31 12:30:17;;;;;;;1.85;0.77;;;;;;;;;;6243652;23;20855;-86
2023/10/31 12:32:43;;;;;;;2.42;1.05;;;;;;;;;;6246438;23;20075;-85
2023/10/31 12:35:16;;;;;;;1.73;0.45;;;;;;;;;;6245354;23;20000;-85
2023/10/31 12:37:46;;;;;;;1.80;0.55;;;;;;;;;;6245984;23;20016;-85
2023/10/31 12:40:17;;;;;;;2.08;0.77;;;;;;;;;;6243136;23;20363;-86
2023/10/31 12:42:46;;;;;;;1.30;0.90;;;;;;;;;;6244703;23;20008;-87
2023/10/31 12:45:13;;;;;;;0.77;0.47;;;;;;;;;;6244554;23;20058;-85
2023/10/31 12:47:39;;;;;;;1.95;0.75;;;;;;;;;;6245786;23;20009;-85
2023/10/31 12:50:09;;;;;;;0.47;0.32;;;;;;;;;;6244785;23;20011;-86
2023/10/31 12:52:48;;;;;;;3.42;1.05;;;;;;;;;;6243912;23;20584;-85
2023/10/31 12:55:18;;;;;;;5.63;1.33;;;;;;;;;;6246322;23;20001;-84
2023/10/31 12:57:46;;;;;;;10.73;1.00;;;;;;;;;;6244200;23;20008;-84
2023/10/31 13:00:12;;;;;;;2.97;1.25;;;;;;;;;;6246715;23;20008;-84
2023/10/31 13:02:42;;;;;;;1.40;0.52;;;;;;;;;;6246894;23;20008;-82
2023/10/31 13:05:08;;;;;;;1.13;0.45;;;;;;;;;;6245455;23;20100;-83
2023/10/31 13:07:34;;;;;;;0.98;0.60;;;;;;;;;;6244707;23;20020;-85
2023/10/31 13:10:00;;;;;;;0.55;0.10;;;;;;;;;;6245231;23;20008;-86
2023/10/31 13:12:27;;;;;;;0.63;0.10;;;;;;;;;;6244023;23;20030;-87
2023/10/31 13:14:53;;;;;;;1.50;0.70;;;;;;;;;;6241824;23;20375;-89
2023/10/31 13:17:48;;;;;;;0.05;0.00;;;;;;;;;;6243422;23;20012;-89
2023/10/31 13:20:41;;;;;;;2.30;0.55;;;;;;;;;;6242191;23;20012;-85
2023/10/31 13:23:07;;;;;;;0.15;0.10;;;;;;;;;;6243978;23;20016;-85
2023/10/31 13:25:33;;;;;;;0.05;0.05;;;;;;;;;;6244097;23;20008;-84
2023/10/31 13:28:00;;;;;;;0.10;0.00;;;;;;;;;;6243943;23;20015;-84
2023/10/31 13:30:26;;;;;;;0.05;0.05;;;;;;;;;;6243735;23;20012;-86
2023/10/31 13:32:52;;;;;;;;;;;;;;;;;;6243031;23;20447;-83
2023/10/31 13:35:18;;;;;;;;;;;;;;;;;;6246093;23;19906;-84
2023/10/31 13:37:44;;;;;;;0.08;0.00;;;;;;;;;;6246252;23;19904;-84
2023/10/31 13:40:11;;;;;;;1.38;0.75;;;;;;;;;;6247584;23;20439;-84
2023/10/31 13:42:37;;;;;;;2.08;0.55;;;;;;;;;;6247040;23;20091;-84
2023/10/31 13:45:03;;;;;;;1.25;0.52;;;;;;;;;;6248545;23;20032;-85
2023/10/31 13:47:30;;;;;;;0.47;0.40;;;;;;;;;;6247711;23;20639;-85
2023/10/31 13:49:56;;;;;;;0.20;0.10;;;;;;;;;;6249267;23;20004;-84
2023/10/31 13:52:22;;;;;;;1.75;0.35;;;;;;;;;;6247697;23;20363;-84
2023/10/31 13:54:48;;;;;;;0.20;0.10;;;;;;;;;;6248760;23;20027;-84
2023/10/31 13:57:14;;;;;;;1.38;0.75;;;;;;;;;;6247128;23;20416;-86
2023/10/31 13:59:40;;;;;;;1.00;0.65;;;;;;;;;;6246403;23;20018;-85
2023/10/31 14:02:06;;;;;;;0.25;0.15;;;;;;;;;;6242858;23;20379;-88
2023/10/31 14:04:33;;;;;;;0.13;0.10;;;;;;;;;;6242449;23;20011;-88
2023/10/31 14:06:59;;;;;;;0.43;0.20;;;;;;;;;;6244459;23;20070;-85
2023/10/31 14:09:25;;;;;;;1.42;0.50;;;;;;;;;;6248695;23;20118;-85
2023/10/31 14:11:51;;;;;;;0.40;0.22;;;;;;;;;;6246015;23;20008;-84
2023/10/31 14:14:19;;;;;;;0.50;0.30;;;;;;;;;;6245777;23;20608;-83
2023/10/31 14:16:45;;;;;;;0.13;0.10;;;;;;;;;;6248947;23;20008;-84
2023/10/31 14:19:11;;;;;;;0.43;0.30;;;;;;;;;;6246262;23;20039;-85
2023/10/31 14:21:37;;;;;;;0.00;0.00;;;;;;;;;;6249292;23;20008;-85
2023/10/31 14:24:04;;;;;;;0.00;0.00;;;;;;;;;;6250749;23;20026;-84
2023/10/31 14:26:32;;;;;;;0.55;0.20;;;;;;;;;;6245940;23;20731;-86
2023/10/31 14:28:59;;;;;;;0.17;0.13;;;;;;;;;;6245715;23;20430;-85
2023/10/31 14:31:25;;;;;;;0.00;0.00;;;;;;;;;;6247841;23;20054;-85
2023/10/31 14:33:51;;;;;;;0.43;0.22;;;;;;;;;;6247133;23;20004;-85
2023/10/31 14:36:17;;;;;;;0.70;0.38;;;;;;;;;;6245841;23;20015;-86
2023/10/31 14:38:43;;;;;;;0.85;0.30;;;;;;;;;;6246474;23;20427;-84
2023/10/31 14:41:09;;;;;;;0.65;0.40;;;;;;;;;;6246613;23;20008;-85
2023/10/31 14:43:35;;;;;;;2.67;0.70;;;;;;;;;;6247097;23;20014;-85
2023/10/31 14:46:02;;;;;;;1.48;0.88;;;;;;;;;;6246181;23;20012;-84
2023/10/31 14:48:28;;;;;;;2.10;0.20;;;;;;;;;;6247844;23;20000;-86
2023/10/31 14:50:57;;;;;;;0.43;0.25;;;;;;;;;;6242248;23;20000;-86
2023/10/31 14:53:23;;;;;;;0.57;0.20;;;;;;;;;;6246343;23;20004;-84
2023/10/31 14:55:49;;;;;;;0.90;0.10;;;;;;;;;;6248492;23;20011;-84
2023/10/31 14:58:15;;;;;;;2.03;0.00;;;;;;;;;;6248303;23;20015;-84
2023/10/31 15:00:41;;;;;;;0.45;0.10;;;;;;;;;;6246704;23;20012;-87
2023/10/31 15:03:07;;;;;;;0.45;0.30;;;;;;;;;;6246246;23;20324;-83
2023/10/31 15:05:33;;;;;;;0.88;0.22;;;;;;;;;;6245356;23;20439;-83
2023/10/31 15:08:00;;;;;;;1.60;0.88;;;;;;;;;;6247971;23;20020;-85
2023/10/31 15:10:28;;;;;;;1.73;0.68;;;;;;;;;;6247336;23;20004;-86
2023/10/31 15:12:54;;;;;;;0.55;0.50;;;;;;;;;;6246932;23;20008;-84
2023/10/31 15:15:20;;;;;;;2.92;0.88;;;;;;;;;;6245604;23;20479;-85
2023/10/31 15:17:51;;;;;;;1.40;0.60;;;;;;;;;;6246328;23;20019;-85
2023/10/31 15:20:17;;;;;;;1.63;0.40;;;;;;;;;;6245607;23;20015;-84
2023/10/31 15:22:43;;;;;;;0.52;0.20;;;;;;;;;;6245935;23;20009;-86
2023/10/31 15:25:10;;;;;;;0.65;0.10;;;;;;;;;;6247943;23;20004;-85
2023/10/31 15:27:36;;;;;;;0.50;0.17;;;;;;;;;;6248137;23;20309;-86
2023/10/31 15:30:02;;;;;;;0.22;0.10;;;;;;;;;;6246547;23;20011;-85
2023/10/31 15:32:28;;;;;;;0.77;0.20;;;;;;;;;;6244952;23;20825;-86
2023/10/31 15:34:54;;;;;;;0.80;0.68;;;;;;;;;;6244163;23;20012;-85
2023/10/31 15:37:20;;;;;;;2.03;0.63;;;;;;;;;;6242648;23;20412;-84
2023/10/31 15:39:51;;;;;;;1.45;0.50;;;;;;;;;;6245376;23;20059;-84
2023/10/31 15:42:17;;;;;;;0.40;0.20;;;;;;;;;;6245119;23;20008;-84
2023/10/31 15:44:43;;;;;;;1.58;0.28;;;;;;;;;;6244658;23;20008;-85
2023/10/31 15:47:09;;;;;;;0.60;0.15;;;;;;;;;;6244253;23;20008;-88
2023/10/31 15:49:36;;;;;;;0.28;0.25;;;;;;;;;;6238087;23;20083;-87
2023/10/31 15:52:02;;;;;;;1.95;0.40;;;;;;;;;;6241893;23;20004;-88
2023/10/31 15:54:29;;;;;;;0.85;0.43;;;;;;;;;;6241269;23;20044;-87
2023/10/31 15:56:55;;;;;;;1.23;0.73;;;;;;;;;;6240583;23;20012;-89
2023/10/31 15:59:27;;;;;;;1.23;0.52;;;;;;;;;;6240743;23;20580;-88
2023/10/31 16:01:53;;;;;;;3.55;0.73;;;;;;;;;;6240992;23;20004;-87
2023/10/31 16:04:23;;;;;;;1.30;0.63;;;;;;;;;;6239610;23;20019;-88
2023/10/31 16:06:49;;;;;;;0.63;0.20;;;;;;;;;;6241325;23;20008;-88
2023/10/31 16:09:18;;;;;;;0.35;0.20;;;;;;;;;;6241574;23;20012;-87
2023/10/31 16:11:45;;;;;;;2.53;1.08;;;;;;;;;;6239800;23;20332;-85
2023/10/31 16:14:11;;;;;;;4.88;1.17;;;;;;;;;;6241592;23;20618;-87
2023/10/31 16:16:37;;;;;;;2.95;0.65;;;;;;;;;;6242154;23;20094;-86
2023/10/31 16:19:03;;;;;;;0.30;0.28;;;;;;;;;;6241489;23;20012;-87
2023/10/31 16:21:29;;;;;;;0.63;0.50;;;;;;;;;;6241623;23;20019;-88
2023/10/31 16:23:57;;;;;;;2.25;0.60;;;;;;;;;;6241084;23;20328;-87
2023/10/31 16:26:26;;;;;;;0.47;0.40;;;;;;;;;;6242050;23;20008;-91
2023/10/31 16:28:53;;;;;;;0.52;0.40;;;;;;;;;;6241819;23;20332;-88
2023/10/31 16:31:19;;;;;;;0.40;0.13;;;;;;;;;;6241153;23;20150;-89
2023/10/31 16:33:46;;;;;;;1.00;0.20;;;;;;;;;;6242291;23;20008;-86
2023/10/31 16:36:12;;;;;;;1.48;0.75;;;;;;;;;;6242057;23;20004;-86
2023/10/31 16:38:38;;;;;;;1.88;0.77;;;;;;;;;;6242782;23;20496;-85
2023/10/31 16:41:04;;;;;;;3.13;1.80;;;;;;;;;;6243460;23;20046;-85
2023/10/31 16:43:30;;;;;;;0.80;0.43;;;;;;;;;;6241777;23;20115;-87
2023/10/31 16:45:56;;;;;;;;;;;;;;;;;;6240538;23;20408;-88
2023/10/31 16:48:24;;;;;;;3.03;1.55;;;;;;;;;;6242652;23;19935;-87
2023/10/31 16:50:51;;;;;;;1.88;0.60;;;;;;;;;;6245733;23;20008;-86
2023/10/31 16:53:17;;;;;;;2.42;0.63;;;;;;;;;;6244777;23;20043;-88
2023/10/31 16:55:43;;;;;;;2.80;0.68;;;;;;;;;;6241523;23;20032;-87
2023/10/31 16:58:09;;;;;;;2.10;0.98;;;;;;;;;;6242675;23;20039;-87
2023/10/31 17:00:39;;;;;;;3.03;0.43;;;;;;;;;;6243914;23;20008;-87
2023/10/31 17:03:11;;;;;;;7.10;2.85;;;;;;;;;;6243768;23;20014;-87
2023/10/31 17:05:40;;;;;;;5.38;1.95;;;;;;;;;;6240923;23;20015;-88
2023/10/31 17:08:06;;;;;;;6.72;2.65;;;;;;;;;;6241523;23;20032;-87
2023/10/31 17:11:00;;;;;;;1.10;0.70;;;;;;;;;;6242047;23;20049;-90
2023/10/31 17:14:01;;;;;;;;;;;;;;;;;;;;;
2023/10/31 17:16:48;;;;;;;2.42;1.13;;;;;;;;;;6246727;23;20103;-89
2023/10/31 17:19:19;;;;;;;;;;;;;;;;;;6245890;23;20015;-90
2023/10/31 17:21:48;;;;;;;2.38;0.98;;;;;;;;;;6244303;23;19998;-90
2023/10/31 17:24:40;;;;;;;3.07;1.00;;;;;;;;;;6219382;23;20390;-89
2023/10/31 17:27:07;;;;;;;2.25;0.80;;;;;;;;;;6201178;23;20374;-90
2023/10/31 17:29:33;;;;;;;1.80;1.08;;;;;;;;;;6217356;23;20012;-89
2023/10/31 17:31:59;;;;;;;;;;;;;;;;;;6217339;23;20087;-91
2023/10/31 17:34:28;;;;;;;;;;;;;;;;;;6216035;23;19973;-90
2023/10/31 17:37:02;;;;;;;;;;;;;;;;;;6215873;23;19907;-90
2023/10/31 17:39:30;;;;;;;4.28;1.15;;;;;;;;;;6216967;23;19994;-89
2023/10/31 17:42:03;;;;;;;2.70;1.38;;;;;;;;;;6217577;23;20005;-90
2023/10/31 17:44:42;;;;;;;1.00;0.68;;;;;;;;;;6242828;23;20046;-89
2023/10/31 17:47:08;;;;;;;0.90;0.60;;;;;;;;;;6215286;23;20051;-89
2023/10/31 17:49:36;;;;;;;3.70;1.20;;;;;;;;;;6214175;23;20774;-90
2023/10/31 17:52:18;;;;;;;3.33;1.13;;;;;;;;;;6214823;23;20678;-89
2023/10/31 17:54:55;;;;;;;1.92;0.47;;;;;;;;;;6217093;23;20608;-90
2023/10/31 17:57:29;;;;;;;;;;;;;;;;;;6221836;23;20010;-92
2023/10/31 18:00:02;;;;;;;4.90;1.38;;;;;;;;;;6216877;23;19911;-91
2023/10/31 18:02:30;;;;;;;1.33;0.70;;;;;;;;;;6216237;23;20024;-90
2023/10/31 18:05:38;;;;;;;4.90;1.85;;;;;;;;;;6215971;23;20366;-93
2023/10/31 18:10:37;;;;;;;2.17;0.63;;;;;;;;;;6233865;22;20023;-91
2023/10/31 18:13:42;;;;;;;1.65;0.95;;;;;;;;;;6209626;23;20023;-94
2023/10/31 18:21:55;;;;;;;0.90;0.40;;;;;;;;;;6210999;23;20370;-92
2023/10/31 18:24:24;;;;;;;1.65;0.82;;;;;;;;;;6186923;23;20036;-90
2023/10/31 18:35:15;;;;;;;1.65;1.02;;;;;;;;;;6210572;22;20082;-88
2023/10/31 18:37:41;;;;;;;2.05;1.10;;;;;;;;;;6238146;23;20012;-90
2023/10/31 18:43:11;;;;;;;10.52;2.85;;;;;;;;;;6215846;23;20016;-91
2023/10/31 18:45:37;;;;;;;5.82;1.88;;;;;;;;;;6238662;23;20009;-92
2023/10/31 18:48:11;;;;;;;2.38;1.10;;;;;;;;;;6238381;23;20047;-91
2023/10/31 18:50:38;;;;;;;4.65;1.90;;;;;;;;;;6237501;23;20009;-89
2023/10/31 18:53:04;;;;;;;;;;;;;;;;;;6237556;23;20009;-90
2023/10/31 18:55:30;;;;;;;4.30;1.38;;;;;;;;;;6213183;23;20326;-89
2023/10/31 18:57:56;;;;;;;1.90;1.08;;;;;;;;;;6236495;23;20039;-89
2023/10/31 19:00:32;;;;;;;1.60;0.60;;;;;;;;;;6237052;23;20070;-90
2023/10/31 19:03:01;;;;;;;3.28;1.15;;;;;;;;;;6237339;23;20020;-92
2023/10/31 19:05:45;;;;;;;6.38;2.35;;;;;;;;;;6239378;23;20095;-90
2023/10/31 19:08:14;;;;;;;3.67;1.77;;;;;;;;;;6238104;23;20012;-91
2023/10/31 19:10:47;;;;;;;2.70;1.48;;;;;;;;;;6239291;23;20013;-91
2023/10/31 19:13:20;;;;;;;3.40;1.80;;;;;;;;;;6236181;23;20328;-92
2023/10/31 19:15:58;;;;;;;4.00;1.13;;;;;;;;;;6240916;23;20008;-91
2023/10/31 19:18:56;;;;;;;;;;;;;;;;;;;;;
2023/10/31 19:33:11;;;;;;;13.80;7.03;;;;;;;;;;6198893;22;20033;-91
2023/10/31 19:41:11;;;;;;;;;;;;;;;;;;6184161;22;19915;-87
2023/10/31 19:49:39;;;;;;;3.83;1.65;;;;;;;;;;6213806;22;20032;-91
2023/10/31 20:10:13;;;;;;;2.90;1.38;;;;;;;;;;6245029;23;20024;-85
2023/10/31 20:12:39;;;;;;;3.15;1.65;;;;;;;;;;6241922;23;20032;-85
2023/10/31 20:15:08;;;;;;;5.82;2.53;;;;;;;;;;6242747;23;20012;-86
2023/10/31 20:17:37;;;;;;;;;;;;;;;;;;6241756;23;20012;-86
2023/10/31 20:20:03;;;;;;;;;;;;;;;;;;6218450;23;20227;-84
2023/10/31 20:22:29;;;;;;;;;;;;;;;;;;6217495;23;19904;-87
2023/10/31 20:24:55;;;;;;;6.45;1.35;;;;;;;;;;6214767;23;19922;-90
2023/10/31 20:27:21;;;;;;;3.50;1.58;;;;;;;;;;6241124;23;20373;-87
2023/10/31 20:29:47;;;;;;;2.97;1.10;;;;;;;;;;6245445;23;20008;-87
2023/10/31 20:32:13;;;;;;;3.08;0.60;;;;;;;;;;6245488;23;20353;-88
2023/10/31 20:34:39;;;;;;;1.60;0.82;;;;;;;;;;6241686;23;20023;-86
2023/10/31 20:37:05;;;;;;;9.63;5.72;;;;;;;;;;6243381;23;20008;-88
2023/10/31 20:39:31;;;;;;;11.88;5.03;;;;;;;;;;6245427;23;20015;-88
2023/10/31 20:41:58;;;;;;;6.03;1.55;;;;;;;;;;6245862;23;20011;-86
2023/10/31 20:44:24;;;;;;;5.22;1.73;;;;;;;;;;6246019;23;20414;-85
2023/10/31 20:49:53;;;;;;;1.70;0.63;;;;;;;;;;6211386;23;20046;-91
2023/10/31 20:52:21;;;;;;;2.58;0.98;;;;;;;;;;6244473;23;20027;-89
2023/10/31 20:54:47;;;;;;;7.80;1.75;;;;;;;;;;6246127;23;20109;-88
2023/10/31 20:57:13;;;;;;;2.58;0.80;;;;;;;;;;6244318;23;20008;-87
2023/10/31 20:59:43;;;;;;;2.38;1.55;;;;;;;;;;6241301;23;20024;-86
2023/10/31 21:02:09;;;;;;;4.55;1.52;;;;;;;;;;6242230;23;20331;-87
2023/10/31 21:04:36;;;;;;;3.42;1.80;;;;;;;;;;6245205;23;20020;-88
2023/10/31 21:07:03;;;;;;;1.40;0.40;;;;;;;;;;6245189;23;20474;-89
2023/10/31 21:09:30;;;;;;;2.80;0.63;;;;;;;;;;6242378;23;20024;-83
2023/10/31 21:11:56;;;;;;;3.47;1.63;;;;;;;;;;6241929;23;20023;-87
2023/10/31 21:14:22;;;;;;;5.82;1.83;;;;;;;;;;6243989;23;20007;-85
2023/10/31 21:16:56;;;;;;;3.10;1.33;;;;;;;;;;6241999;23;20016;-88
2023/10/31 21:19:22;;;;;;;6.97;1.50;;;;;;;;;;6245195;23;20007;-86
2023/10/31 22:21:47;;;;;;;;;;;;;;;;;;;;;
2023/10/31 22:25:04;;;;;;;2.50;1.05;;;;;;;;;;6245768;22;20528;-92
2023/10/31 23:23:22;;;;;;;2.60;0.80;;;;;;;;;;6097262;23;20090;-91
2023/10/31 23:26:45;;;;;;;;;;;;;;;;;;;;;
2023/10/31 23:47:14;;;;;;;0.30;0.20;;;;;;;;;;6242928;23;20140;-92
2023/10/31 23:49:44;;;;;;;0.95;0.50;;;;;;;;;;6218246;23;20019;-91
2023/10/31 23:52:35;;;;;;;1.70;0.40;;;;;;;;;;6217157;23;20092;-92
